sensor_id;sensor_type;location;lat;lon;timestamp;pressure;altitude;pressure_sealevel;temperature;humidity
55486;BME280;49383;-25.924;28.194;2022-10-17T00:00:01;85370.02;;;22.48;29.08
55486;BME280;49383;-25.924;28.194;2022-10-17T00:02:26;85363.13;;;22.43;28.48
55486;BME280;49383;-25.924;28.194;2022-10-17T00:04:51;85362.22;;;22.38;28.08
55486;BME280;49383;-25.924;28.194;2022-10-17T00:07:16;85360.23;;;22.36;27.96
55486;BME280;49383;-25.924;28.194;2022-10-17T00:09:42;85355.66;;;22.35;27.74
55486;BME280;49383;-25.924;28.194;2022-10-17T00:14:32;85345.96;;;22.65;28.49
55486;BME280;49383;-25.924;28.194;2022-10-17T00:16:57;85344.66;;;22.38;28.05
55486;BME280;49383;-25.924;28.194;2022-10-17T00:19:22;85345.36;;;22.33;27.81
55486;BME280;49383;-25.924;28.194;2022-10-17T00:21:49;85350.62;;;22.31;27.12
55486;BME280;49383;-25.924;28.194;2022-10-17T00:24:13;85350.03;;;22.34;27.62
55486;BME280;49383;-25.924;28.194;2022-10-17T00:26:38;85347.75;;;22.37;28.07
55486;BME280;49383;-25.924;28.194;2022-10-17T00:29:03;85345.14;;;22.32;27.77
55486;BME280;49383;-25.924;28.194;2022-10-17T00:31:28;85341.10;;;22.29;27.59
55486;BME280;49383;-25.924;28.194;2022-10-17T00:33:53;85339.43;;;22.53;26.89
55486;BME280;49383;-25.924;28.194;2022-10-17T00:36:20;85338.82;;;22.51;27.10
55486;BME280;49383;-25.924;28.194;2022-10-17T00:38:45;85338.87;;;22.54;28.04
55486;BME280;49383;-25.924;28.194;2022-10-17T00:41:11;85337.12;;;22.25;27.65
55486;BME280;49383;-25.924;28.194;2022-10-17T00:45:59;85329.57;;;22.22;27.31
55486;BME280;49383;-25.924;28.194;2022-10-17T00:48:25;85326.12;;;22.15;27.37
55486;BME280;49383;-25.924;28.194;2022-10-17T00:50:50;85323.40;;;22.49;28.27
55486;BME280;49383;-25.924;28.194;2022-10-17T00:53:15;85318.61;;;22.20;28.34
55486;BME280;49383;-25.924;28.194;2022-10-17T00:55:45;85314.71;;;22.15;27.66
55486;BME280;49383;-25.924;28.194;2022-10-17T00:58:06;85311.69;;;22.16;27.52
55486;BME280;49383;-25.924;28.194;2022-10-17T01:00:30;85308.73;;;22.15;27.15
55486;BME280;49383;-25.924;28.194;2022-10-17T01:02:55;85314.11;;;22.61;27.75
55486;BME280;49383;-25.924;28.194;2022-10-17T01:05:21;85320.19;;;22.41;28.69
55486;BME280;49383;-25.924;28.194;2022-10-17T01:07:47;85320.49;;;22.12;28.28
55486;BME280;49383;-25.924;28.194;2022-10-17T01:10:12;85326.27;;;22.53;27.86
55486;BME280;49383;-25.924;28.194;2022-10-17T01:12:46;85327.09;;;22.08;27.80
55486;BME280;49383;-25.924;28.194;2022-10-17T01:15:09;85331.31;;;22.13;27.40
55486;BME280;49383;-25.924;28.194;2022-10-17T01:17:33;85331.80;;;22.06;27.31
55486;BME280;49383;-25.924;28.194;2022-10-17T01:20:08;85337.12;;;22.26;27.66
55486;BME280;49383;-25.924;28.194;2022-10-17T01:22:19;85344.86;;;22.47;28.74
55486;BME280;49383;-25.924;28.194;2022-10-17T01:24:52;85346.04;;;22.39;28.21
55486;BME280;49383;-25.924;28.194;2022-10-17T01:29:45;85346.36;;;22.04;27.78
55486;BME280;49383;-25.924;28.194;2022-10-17T01:32:00;85349.64;;;21.95;27.73
55486;BME280;49383;-25.924;28.194;2022-10-17T01:34:28;85351.49;;;22.25;27.85
55486;BME280;49383;-25.924;28.194;2022-10-17T01:36:54;85353.52;;;22.55;28.72
55486;BME280;49383;-25.924;28.194;2022-10-17T01:39:18;85352.33;;;22.03;28.56
55486;BME280;49383;-25.924;28.194;2022-10-17T01:41:41;85348.35;;;21.98;28.16
55486;BME280;49383;-25.924;28.194;2022-10-17T01:44:07;85350.98;;;21.98;28.25
55486;BME280;49383;-25.924;28.194;2022-10-17T01:46:30;85351.14;;;22.20;28.14
55486;BME280;49383;-25.924;28.194;2022-10-17T01:48:53;85351.33;;;22.19;27.96
55486;BME280;49383;-25.924;28.194;2022-10-17T01:51:21;85349.83;;;22.39;28.36
55486;BME280;49383;-25.924;28.194;2022-10-17T01:53:49;85350.81;;;22.14;28.52
55486;BME280;49383;-25.924;28.194;2022-10-17T01:56:10;85350.20;;;22.38;28.06
55486;BME280;49383;-25.924;28.194;2022-10-17T01:58:37;85346.36;;;22.16;27.86
55486;BME280;49383;-25.924;28.194;2022-10-17T02:01:01;85341.27;;;22.07;28.09
55486;BME280;49383;-25.924;28.194;2022-10-17T02:03:24;85337.80;;;22.15;28.93
55486;BME280;49383;-25.924;28.194;2022-10-17T02:05:49;85345.36;;;21.91;29.03
55486;BME280;49383;-25.924;28.194;2022-10-17T02:10:44;85365.75;;;22.35;28.51
55486;BME280;49383;-25.924;28.194;2022-10-17T02:13:10;85362.72;;;22.16;27.88
55486;BME280;49383;-25.924;28.194;2022-10-17T02:15:45;85363.43;;;22.11;28.00
55486;BME280;49383;-25.924;28.194;2022-10-17T02:18:04;85364.10;;;22.05;28.13
55486;BME280;49383;-25.924;28.194;2022-10-17T02:20:24;85376.11;;;21.85;29.13
55486;BME280;49383;-25.924;28.194;2022-10-17T02:22:50;85382.52;;;21.83;28.47
55486;BME280;49383;-25.924;28.194;2022-10-17T02:25:17;85391.05;;;21.78;28.27
55486;BME280;49383;-25.924;28.194;2022-10-17T02:27:42;85402.44;;;21.87;27.71
55486;BME280;49383;-25.924;28.194;2022-10-17T02:30:05;85413.42;;;21.79;27.61
55486;BME280;49383;-25.924;28.194;2022-10-17T02:32:32;85422.29;;;22.02;28.06
55486;BME280;49383;-25.924;28.194;2022-10-17T02:34:54;85428.47;;;22.31;29.16
55486;BME280;49383;-25.924;28.194;2022-10-17T02:37:21;85430.36;;;22.09;28.49
55486;BME280;49383;-25.924;28.194;2022-10-17T02:39:42;85433.76;;;22.22;28.41
55486;BME280;49383;-25.924;28.194;2022-10-17T02:42:09;85441.83;;;21.70;28.04
55486;BME280;49383;-25.924;28.194;2022-10-17T02:44:32;85450.85;;;22.20;28.00
55486;BME280;49383;-25.924;28.194;2022-10-17T02:47:02;85455.14;;;21.89;28.07
55486;BME280;49383;-25.924;28.194;2022-10-17T02:49:24;85459.79;;;22.21;29.07
55486;BME280;49383;-25.924;28.194;2022-10-17T02:51:51;85464.28;;;21.98;28.56
55486;BME280;49383;-25.924;28.194;2022-10-17T02:54:17;85470.31;;;21.94;28.10
55486;BME280;49383;-25.924;28.194;2022-10-17T02:56:42;85476.68;;;22.15;27.83
55486;BME280;49383;-25.924;28.194;2022-10-17T02:59:03;85483.36;;;22.13;27.81
55486;BME280;49383;-25.924;28.194;2022-10-17T03:01:29;85485.10;;;22.13;28.49
55486;BME280;49383;-25.924;28.194;2022-10-17T03:06:18;85497.02;;;22.14;28.27
55486;BME280;49383;-25.924;28.194;2022-10-17T03:08:43;85503.36;;;21.89;28.16
55486;BME280;49383;-25.924;28.194;2022-10-17T03:11:08;85511.47;;;21.85;28.04
55486;BME280;49383;-25.924;28.194;2022-10-17T03:13:33;85519.31;;;21.83;28.12
55486;BME280;49383;-25.924;28.194;2022-10-17T03:15:58;85520.12;;;21.72;29.00
55486;BME280;49383;-25.924;28.194;2022-10-17T03:18:23;85524.60;;;21.93;28.19
55486;BME280;49383;-25.924;28.194;2022-10-17T03:20:49;85531.28;;;22.38;28.33
55486;BME280;49383;-25.924;28.194;2022-10-17T03:23:14;85532.45;;;21.74;28.54
55486;BME280;49383;-25.924;28.194;2022-10-17T03:25:39;85538.14;;;22.18;28.30
55486;BME280;49383;-25.924;28.194;2022-10-17T03:28:04;85538.63;;;21.97;27.97
55486;BME280;49383;-25.924;28.194;2022-10-17T03:30:29;85542.30;;;21.92;28.12
55486;BME280;49383;-25.924;28.194;2022-10-17T03:32:54;85548.74;;;22.22;28.84
55486;BME280;49383;-25.924;28.194;2022-10-17T03:35:20;85554.39;;;21.75;28.89
55486;BME280;49383;-25.924;28.194;2022-10-17T03:37:44;85558.87;;;21.97;28.40
55486;BME280;49383;-25.924;28.194;2022-10-17T03:40:10;85563.41;;;22.00;28.05
55486;BME280;49383;-25.924;28.194;2022-10-17T03:42:35;85565.59;;;22.15;28.00
55486;BME280;49383;-25.924;28.194;2022-10-17T03:45:00;85564.70;;;21.95;28.39
55486;BME280;49383;-25.924;28.194;2022-10-17T03:47:25;85569.05;;;21.74;29.08
55486;BME280;49383;-25.924;28.194;2022-10-17T03:49:50;85573.00;;;22.19;28.30
55486;BME280;49383;-25.924;28.194;2022-10-17T03:52:15;85578.79;;;21.60;28.10
55486;BME280;49383;-25.924;28.194;2022-10-17T03:54:40;85587.05;;;21.60;27.87
55486;BME280;49383;-25.924;28.194;2022-10-17T03:57:06;85591.32;;;21.81;28.15
55486;BME280;49383;-25.924;28.194;2022-10-17T03:59:31;85599.68;;;22.13;29.22
55486;BME280;49383;-25.924;28.194;2022-10-17T04:01:56;85603.81;;;21.60;28.59
55486;BME280;49383;-25.924;28.194;2022-10-17T04:04:21;85605.09;;;21.77;28.52
55486;BME280;49383;-25.924;28.194;2022-10-17T04:06:46;85611.03;;;22.03;28.21
55486;BME280;49383;-25.924;28.194;2022-10-17T04:09:11;85611.33;;;21.95;27.89
55486;BME280;49383;-25.924;28.194;2022-10-17T04:11:36;85617.70;;;21.72;27.68
55486;BME280;49383;-25.924;28.194;2022-10-17T04:14:01;85619.95;;;21.78;27.54
55486;BME280;49383;-25.924;28.194;2022-10-17T04:16:27;85619.97;;;21.90;27.97
55486;BME280;49383;-25.924;28.194;2022-10-17T04:18:54;85620.19;;;21.55;29.91
55486;BME280;49383;-25.924;28.194;2022-10-17T04:21:17;85622.20;;;22.03;31.73
55486;BME280;49383;-25.924;28.194;2022-10-17T04:23:42;85625.06;;;21.85;31.27
55486;BME280;49383;-25.924;28.194;2022-10-17T04:26:07;85623.70;;;21.87;30.98
55486;BME280;49383;-25.924;28.194;2022-10-17T04:28:33;85629.67;;;22.32;31.51
55486;BME280;49383;-25.924;28.194;2022-10-17T04:30:58;85634.18;;;22.10;30.90
55486;BME280;49383;-25.924;28.194;2022-10-17T04:33:23;85634.70;;;22.15;31.16
55486;BME280;49383;-25.924;28.194;2022-10-17T04:35:55;85638.19;;;21.99;32.34
55486;BME280;49383;-25.924;28.194;2022-10-17T04:38:15;85639.98;;;22.03;31.01
55486;BME280;49383;-25.924;28.194;2022-10-17T04:40:40;85643.25;;;22.02;30.69
55486;BME280;49383;-25.924;28.194;2022-10-17T04:43:06;85643.66;;;22.04;31.27
55486;BME280;49383;-25.924;28.194;2022-10-17T04:45:31;85645.93;;;22.03;30.21
55486;BME280;49383;-25.924;28.194;2022-10-17T04:47:57;85654.43;;;22.16;31.53
55486;BME280;49383;-25.924;28.194;2022-10-17T04:50:22;85656.57;;;22.01;30.73
55486;BME280;49383;-25.924;28.194;2022-10-17T04:52:47;85662.12;;;22.27;31.50
55486;BME280;49383;-25.924;28.194;2022-10-17T04:55:12;85665.78;;;22.42;30.77
55486;BME280;49383;-25.924;28.194;2022-10-17T04:57:38;85667.80;;;22.05;30.68
55486;BME280;49383;-25.924;28.194;2022-10-17T05:00:04;85671.97;;;22.13;31.72
55486;BME280;49383;-25.924;28.194;2022-10-17T05:02:28;85673.73;;;22.38;31.29
55486;BME280;49383;-25.924;28.194;2022-10-17T05:04:53;85674.75;;;22.35;31.55
55486;BME280;49383;-25.924;28.194;2022-10-17T05:07:18;85678.25;;;22.36;30.84
55486;BME280;49383;-25.924;28.194;2022-10-17T05:09:43;85679.23;;;22.35;30.95
55486;BME280;49383;-25.924;28.194;2022-10-17T05:12:08;85680.21;;;22.47;31.74
55486;BME280;49383;-25.924;28.194;2022-10-17T05:14:33;85676.63;;;22.17;32.18
55486;BME280;49383;-25.924;28.194;2022-10-17T05:16:58;85674.54;;;22.32;31.28
55486;BME280;49383;-25.924;28.194;2022-10-17T05:19:24;85676.49;;;22.32;30.78
55486;BME280;49383;-25.924;28.194;2022-10-17T05:21:49;85677.42;;;22.54;30.55
55486;BME280;49383;-25.924;28.194;2022-10-17T05:24:14;85676.24;;;22.27;30.01
55486;BME280;49383;-25.924;28.194;2022-10-17T05:26:39;85674.21;;;22.61;32.04
55486;BME280;49383;-25.924;28.194;2022-10-17T05:29:04;85672.91;;;22.67;31.52
55486;BME280;49383;-25.924;28.194;2022-10-17T05:31:30;85670.89;;;22.62;31.15
55486;BME280;49383;-25.924;28.194;2022-10-17T05:33:54;85671.01;;;22.55;31.66
55486;BME280;49383;-25.924;28.194;2022-10-17T05:36:19;85674.21;;;22.74;31.18
55486;BME280;49383;-25.924;28.194;2022-10-17T05:38:48;85674.98;;;22.59;31.60
55486;BME280;49383;-25.924;28.194;2022-10-17T05:41:10;85674.22;;;22.96;31.01
55486;BME280;49383;-25.924;28.194;2022-10-17T05:43:35;85678.54;;;22.76;31.46
55486;BME280;49383;-25.924;28.194;2022-10-17T05:46:03;85680.23;;;22.86;31.02
55486;BME280;49383;-25.924;28.194;2022-10-17T05:48:25;85673.26;;;22.70;30.59
55486;BME280;49383;-25.924;28.194;2022-10-17T05:50:57;85670.46;;;22.96;30.51
55486;BME280;49383;-25.924;28.194;2022-10-17T05:53:16;85670.28;;;23.04;30.34
55486;BME280;49383;-25.924;28.194;2022-10-17T05:55:40;85673.35;;;23.09;30.34
55486;BME280;49383;-25.924;28.194;2022-10-17T05:58:05;85678.86;;;23.18;29.99
55486;BME280;49383;-25.924;28.194;2022-10-17T06:00:31;85678.30;;;23.27;29.88
55486;BME280;49383;-25.924;28.194;2022-10-17T06:02:56;85682.37;;;22.86;30.01
55486;BME280;49383;-25.924;28.194;2022-10-17T06:05:21;85680.56;;;23.13;30.08
55486;BME280;49383;-25.924;28.194;2022-10-17T06:07:47;85681.33;;;22.99;30.06
55486;BME280;49383;-25.924;28.194;2022-10-17T06:10:12;85684.78;;;23.05;30.07
55486;BME280;49383;-25.924;28.194;2022-10-17T06:12:36;85687.50;;;23.16;30.24
55486;BME280;49383;-25.924;28.194;2022-10-17T06:15:02;85688.30;;;23.17;30.30
55486;BME280;49383;-25.924;28.194;2022-10-17T06:17:27;85690.21;;;23.19;30.26
55486;BME280;49383;-25.924;28.194;2022-10-17T06:19:52;85695.46;;;23.26;30.40
55486;BME280;49383;-25.924;28.194;2022-10-17T06:22:17;85695.34;;;23.31;29.99
55486;BME280;49383;-25.924;28.194;2022-10-17T06:24:42;85696.33;;;23.30;30.24
55486;BME280;49383;-25.924;28.194;2022-10-17T06:27:07;85697.14;;;23.40;30.24
55486;BME280;49383;-25.924;28.194;2022-10-17T06:29:33;85696.83;;;23.64;30.27
55486;BME280;49383;-25.924;28.194;2022-10-17T06:31:57;85696.68;;;23.44;30.27
55486;BME280;49383;-25.924;28.194;2022-10-17T06:34:23;85696.61;;;23.51;30.24
55486;BME280;49383;-25.924;28.194;2022-10-17T06:36:48;85696.32;;;23.56;30.36
55486;BME280;49383;-25.924;28.194;2022-10-17T06:39:13;85693.93;;;23.33;30.11
55486;BME280;49383;-25.924;28.194;2022-10-17T06:41:38;85696.88;;;23.59;30.32
55486;BME280;49383;-25.924;28.194;2022-10-17T06:44:03;85697.44;;;23.58;30.31
55486;BME280;49383;-25.924;28.194;2022-10-17T06:46:28;85699.16;;;23.64;30.43
55486;BME280;49383;-25.924;28.194;2022-10-17T06:48:53;85701.59;;;23.68;30.35
55486;BME280;49383;-25.924;28.194;2022-10-17T06:51:18;85699.03;;;23.46;30.19
55486;BME280;49383;-25.924;28.194;2022-10-17T06:53:43;85698.92;;;23.73;30.37
55486;BME280;49383;-25.924;28.194;2022-10-17T06:56:09;85695.55;;;23.76;30.29
55486;BME280;49383;-25.924;28.194;2022-10-17T06:58:36;85694.48;;;23.54;30.36
55486;BME280;49383;-25.924;28.194;2022-10-17T07:00:59;85692.51;;;23.81;30.30
55486;BME280;49383;-25.924;28.194;2022-10-17T07:03:24;85688.65;;;23.64;30.27
55486;BME280;49383;-25.924;28.194;2022-10-17T07:05:51;85687.96;;;23.90;30.25
55486;BME280;49383;-25.924;28.194;2022-10-17T07:08:14;85683.73;;;23.98;30.29
55486;BME280;49383;-25.924;28.194;2022-10-17T07:10:39;85679.75;;;23.99;30.01
55486;BME280;49383;-25.924;28.194;2022-10-17T07:13:04;85675.32;;;23.48;30.13
55486;BME280;49383;-25.924;28.194;2022-10-17T07:15:29;85671.30;;;23.69;30.26
55486;BME280;49383;-25.924;28.194;2022-10-17T07:17:54;85667.95;;;24.02;30.33
55486;BME280;49383;-25.924;28.194;2022-10-17T07:20:19;85664.97;;;23.74;29.99
55486;BME280;49383;-25.924;28.194;2022-10-17T07:22:45;85657.69;;;23.78;30.27
55486;BME280;49383;-25.924;28.194;2022-10-17T07:25:10;85653.32;;;24.06;30.27
55486;BME280;49383;-25.924;28.194;2022-10-17T07:27:35;85646.41;;;23.85;30.25
55486;BME280;49383;-25.924;28.194;2022-10-17T07:30:00;85645.09;;;23.86;30.05
55486;BME280;49383;-25.924;28.194;2022-10-17T07:32:25;85644.68;;;23.92;30.25
55486;BME280;49383;-25.924;28.194;2022-10-17T07:34:50;85639.44;;;23.91;30.11
55486;BME280;49383;-25.924;28.194;2022-10-17T07:37:15;85633.98;;;24.14;30.11
55486;BME280;49383;-25.924;28.194;2022-10-17T07:39:40;85633.23;;;23.87;30.37
55486;BME280;49383;-25.924;28.194;2022-10-17T07:42:06;85634.86;;;23.67;30.05
55486;BME280;49383;-25.924;28.194;2022-10-17T07:44:31;85633.41;;;23.89;30.02
55486;BME280;49383;-25.924;28.194;2022-10-17T07:46:55;85630.99;;;23.88;29.93
55486;BME280;49383;-25.924;28.194;2022-10-17T07:49:21;85634.32;;;23.91;29.94
55486;BME280;49383;-25.924;28.194;2022-10-17T07:51:47;85632.20;;;24.16;29.93
55486;BME280;49383;-25.924;28.194;2022-10-17T07:54:11;85631.63;;;23.88;30.01
55486;BME280;49383;-25.924;28.194;2022-10-17T07:56:36;85630.41;;;24.16;30.01
55486;BME280;49383;-25.924;28.194;2022-10-17T07:59:01;85630.83;;;23.90;30.37
55486;BME280;49383;-25.924;28.194;2022-10-17T08:01:26;85629.64;;;23.93;30.05
55486;BME280;49383;-25.924;28.194;2022-10-17T08:03:52;85626.42;;;24.15;30.53
55486;BME280;49383;-25.924;28.194;2022-10-17T08:06:18;85624.81;;;24.15;30.55
55486;BME280;49383;-25.924;28.194;2022-10-17T08:08:44;85623.85;;;24.18;30.81
55486;BME280;49383;-25.924;28.194;2022-10-17T08:11:12;85625.30;;;24.18;30.99
55486;BME280;49383;-25.924;28.194;2022-10-17T08:13:35;85624.45;;;24.21;31.14
55486;BME280;49383;-25.924;28.194;2022-10-17T08:16:02;85628.15;;;23.93;31.39
55486;BME280;49383;-25.924;28.194;2022-10-17T08:18:26;85626.25;;;23.85;31.29
55486;BME280;49383;-25.924;28.194;2022-10-17T08:20:51;85622.39;;;24.11;31.67
55486;BME280;49383;-25.924;28.194;2022-10-17T08:23:16;85617.38;;;23.83;31.86
55486;BME280;49383;-25.924;28.194;2022-10-17T08:25:42;85616.94;;;23.78;31.73
55486;BME280;49383;-25.924;28.194;2022-10-17T08:28:07;85616.77;;;23.82;32.08
55486;BME280;49383;-25.924;28.194;2022-10-17T08:30:32;85616.87;;;24.08;32.74
55486;BME280;49383;-25.924;28.194;2022-10-17T08:32:58;85614.58;;;24.07;32.84
55486;BME280;49383;-25.924;28.194;2022-10-17T08:35:24;85609.30;;;23.84;33.26
55486;BME280;49383;-25.924;28.194;2022-10-17T08:37:49;85606.24;;;24.16;32.98
55486;BME280;49383;-25.924;28.194;2022-10-17T08:40:18;85603.46;;;24.08;32.85
55486;BME280;49383;-25.924;28.194;2022-10-17T08:42:54;85603.59;;;24.12;33.70
55486;BME280;49383;-25.924;28.194;2022-10-17T08:45:15;85604.14;;;24.11;33.69
55486;BME280;49383;-25.924;28.194;2022-10-17T08:47:37;85602.45;;;24.10;34.35
55486;BME280;49383;-25.924;28.194;2022-10-17T08:49:58;85596.97;;;23.85;34.23
55486;BME280;49383;-25.924;28.194;2022-10-17T08:52:28;85592.23;;;24.06;34.45
55486;BME280;49383;-25.924;28.194;2022-10-17T08:54:48;85588.13;;;23.85;34.30
55486;BME280;49383;-25.924;28.194;2022-10-17T08:57:15;85583.36;;;23.87;32.74
55486;BME280;49383;-25.924;28.194;2022-10-17T08:59:37;85579.31;;;24.13;33.22
55486;BME280;49383;-25.924;28.194;2022-10-17T09:02:13;85577.15;;;24.15;34.35
55486;BME280;49383;-25.924;28.194;2022-10-17T09:04:44;85571.07;;;24.13;33.00
55486;BME280;49383;-25.924;28.194;2022-10-17T09:06:59;85568.26;;;24.18;35.25
55486;BME280;49383;-25.924;28.194;2022-10-17T09:09:27;85565.57;;;24.21;35.04
55486;BME280;49383;-25.924;28.194;2022-10-17T09:11:53;85565.46;;;24.14;34.44
55486;BME280;49383;-25.924;28.194;2022-10-17T09:14:24;85562.87;;;24.15;34.18
55486;BME280;49383;-25.924;28.194;2022-10-17T09:19:03;85558.38;;;24.21;35.02
55486;BME280;49383;-25.924;28.194;2022-10-17T09:21:32;85558.83;;;24.27;34.85
55486;BME280;49383;-25.924;28.194;2022-10-17T09:23:54;85559.60;;;24.48;34.98
55486;BME280;49383;-25.924;28.194;2022-10-17T09:26:17;85559.02;;;24.19;35.43
55486;BME280;49383;-25.924;28.194;2022-10-17T09:28:43;85553.55;;;23.96;35.23
55486;BME280;49383;-25.924;28.194;2022-10-17T09:31:14;85551.74;;;24.01;35.02
55486;BME280;49383;-25.924;28.194;2022-10-17T09:33:38;85551.82;;;24.34;35.21
55486;BME280;49383;-25.924;28.194;2022-10-17T09:36:00;85547.60;;;24.22;35.29
55486;BME280;49383;-25.924;28.194;2022-10-17T09:38:28;85547.65;;;24.27;35.14
55486;BME280;49383;-25.924;28.194;2022-10-17T09:40:56;85543.68;;;24.28;35.17
55486;BME280;49383;-25.924;28.194;2022-10-17T09:43:16;85541.44;;;24.23;35.08
55486;BME280;49383;-25.924;28.194;2022-10-17T09:45:54;85537.88;;;24.19;34.98
55486;BME280;49383;-25.924;28.194;2022-10-17T09:48:12;85535.10;;;24.25;35.06
55486;BME280;49383;-25.924;28.194;2022-10-17T09:50:33;85532.07;;;24.26;35.09
55486;BME280;49383;-25.924;28.194;2022-10-17T09:53:01;85531.02;;;23.95;35.18
55486;BME280;49383;-25.924;28.194;2022-10-17T09:55:30;85526.09;;;24.25;35.17
55486;BME280;49383;-25.924;28.194;2022-10-17T09:57:53;85528.21;;;24.21;35.16
55486;BME280;49383;-25.924;28.194;2022-10-17T10:00:20;85527.31;;;24.19;35.29
55486;BME280;49383;-25.924;28.194;2022-10-17T10:02:39;85527.27;;;24.07;35.45
55486;BME280;49383;-25.924;28.194;2022-10-17T10:05:14;85523.94;;;23.97;35.74
55486;BME280;49383;-25.924;28.194;2022-10-17T10:07:32;85521.98;;;24.44;35.81
55486;BME280;49383;-25.924;28.194;2022-10-17T10:09:57;85521.64;;;24.18;35.85
55486;BME280;49383;-25.924;28.194;2022-10-17T10:12:23;85519.39;;;23.96;35.82
55486;BME280;49383;-25.924;28.194;2022-10-17T10:14:47;85517.00;;;23.87;35.88
55486;BME280;49383;-25.924;28.194;2022-10-17T10:19:38;85512.67;;;23.86;35.87
55486;BME280;49383;-25.924;28.194;2022-10-17T10:22:05;85509.73;;;23.88;35.96
55486;BME280;49383;-25.924;28.194;2022-10-17T10:24:28;85506.72;;;24.05;35.91
55486;BME280;49383;-25.924;28.194;2022-10-17T10:26:55;85503.96;;;23.84;36.04
55486;BME280;49383;-25.924;28.194;2022-10-17T10:29:23;85503.94;;;23.77;36.14
55486;BME280;49383;-25.924;28.194;2022-10-17T10:31:45;85503.49;;;23.77;35.86
55486;BME280;49383;-25.924;28.194;2022-10-17T10:34:18;85504.80;;;24.11;36.03
55486;BME280;49383;-25.924;28.194;2022-10-17T10:36:45;85500.48;;;23.74;36.26
55486;BME280;49383;-25.924;28.194;2022-10-17T10:39:01;85499.16;;;23.77;36.25
55486;BME280;49383;-25.924;28.194;2022-10-17T10:41:26;85497.71;;;24.22;36.23
55486;BME280;49383;-25.924;28.194;2022-10-17T10:43:52;85493.39;;;23.50;36.32
55486;BME280;49383;-25.924;28.194;2022-10-17T10:46:19;85493.06;;;23.74;36.20
55486;BME280;49383;-25.924;28.194;2022-10-17T10:48:50;85497.12;;;23.74;36.28
55486;BME280;49383;-25.924;28.194;2022-10-17T10:51:13;85492.39;;;23.70;36.47
55486;BME280;49383;-25.924;28.194;2022-10-17T10:53:43;85490.85;;;23.39;36.31
55486;BME280;49383;-25.924;28.194;2022-10-17T10:56:03;85489.11;;;23.66;36.48
55486;BME280;49383;-25.924;28.194;2022-10-17T10:58:31;85489.29;;;23.64;36.62
55486;BME280;49383;-25.924;28.194;2022-10-17T11:00:49;85486.43;;;23.74;36.43
55486;BME280;49383;-25.924;28.194;2022-10-17T11:03:17;85487.30;;;23.74;36.44
55486;BME280;49383;-25.924;28.194;2022-10-17T11:05:43;85489.49;;;23.73;36.37
55486;BME280;49383;-25.924;28.194;2022-10-17T11:08:12;85488.10;;;24.03;36.36
55486;BME280;49383;-25.924;28.194;2022-10-17T11:10:34;85486.83;;;23.57;36.23
55486;BME280;49383;-25.924;28.194;2022-10-17T11:12:58;85487.33;;;24.04;36.33
55486;BME280;49383;-25.924;28.194;2022-10-17T11:15:24;85488.05;;;23.74;36.25
55486;BME280;49383;-25.924;28.194;2022-10-17T11:17:53;85489.26;;;23.80;36.06
55486;BME280;49383;-25.924;28.194;2022-10-17T11:20:17;85491.80;;;23.62;35.87
55486;BME280;49383;-25.924;28.194;2022-10-17T11:22:39;85490.34;;;23.85;36.32
55486;BME280;49383;-25.924;28.194;2022-10-17T11:25:08;85489.75;;;23.83;36.41
55486;BME280;49383;-25.924;28.194;2022-10-17T11:27:28;85491.75;;;23.61;36.29
55486;BME280;49383;-25.924;28.194;2022-10-17T11:29:52;85491.48;;;24.11;36.36
55486;BME280;49383;-25.924;28.194;2022-10-17T11:32:21;85492.27;;;23.81;36.34
55486;BME280;49383;-25.924;28.194;2022-10-17T11:34:45;85489.35;;;23.93;35.41
55486;BME280;49383;-25.924;28.194;2022-10-17T11:37:14;85483.83;;;23.73;35.55
55486;BME280;49383;-25.924;28.194;2022-10-17T11:39:40;85483.08;;;24.04;34.96
55486;BME280;49383;-25.924;28.194;2022-10-17T11:42:04;85480.39;;;24.10;35.00
55486;BME280;49383;-25.924;28.194;2022-10-17T11:44:28;85480.50;;;23.85;34.79
55486;BME280;49383;-25.924;28.194;2022-10-17T11:46:56;85480.12;;;24.15;34.49
55486;BME280;49383;-25.924;28.194;2022-10-17T11:49:19;85477.23;;;24.19;35.07
55486;BME280;49383;-25.924;28.194;2022-10-17T11:51:44;85471.74;;;24.26;34.41
55486;BME280;49383;-25.924;28.194;2022-10-17T11:54:13;85472.81;;;24.18;35.36
55486;BME280;49383;-25.924;28.194;2022-10-17T11:59:06;85468.79;;;24.19;34.62
55486;BME280;49383;-25.924;28.194;2022-10-17T12:01:30;85465.68;;;24.18;35.20
55486;BME280;49383;-25.924;28.194;2022-10-17T12:04:00;85466.99;;;24.17;34.99
55486;BME280;49383;-25.924;28.194;2022-10-17T12:06:33;85465.43;;;24.19;35.47
55486;BME280;49383;-25.924;28.194;2022-10-17T12:08:44;85461.65;;;24.19;34.85
55486;BME280;49383;-25.924;28.194;2022-10-17T12:11:09;85462.97;;;24.24;34.74
55486;BME280;49383;-25.924;28.194;2022-10-17T12:15:55;85462.69;;;24.00;34.96
55486;BME280;49383;-25.924;28.194;2022-10-17T12:20:54;85461.82;;;24.28;34.94
55486;BME280;49383;-25.924;28.194;2022-10-17T12:23:19;85464.95;;;24.30;34.47
55486;BME280;49383;-25.924;28.194;2022-10-17T12:25:36;85463.54;;;24.25;35.35
55486;BME280;49383;-25.924;28.194;2022-10-17T12:28:10;85462.29;;;24.30;34.87
55486;BME280;49383;-25.924;28.194;2022-10-17T12:30:26;85462.57;;;24.33;34.70
55486;BME280;49383;-25.924;28.194;2022-10-17T12:32:57;85458.81;;;24.29;35.35
55486;BME280;49383;-25.924;28.194;2022-10-17T12:35:21;85459.56;;;24.37;34.74
55486;BME280;49383;-25.924;28.194;2022-10-17T12:44:59;85456.86;;;24.03;35.06
55486;BME280;49383;-25.924;28.194;2022-10-17T12:49:50;85455.49;;;24.12;35.11
55486;BME280;49383;-25.924;28.194;2022-10-17T12:52:19;85452.81;;;24.35;35.37
55486;BME280;49383;-25.924;28.194;2022-10-17T12:54:42;85451.95;;;24.34;34.93
55486;BME280;49383;-25.924;28.194;2022-10-17T12:57:13;85448.46;;;24.33;35.39
55486;BME280;49383;-25.924;28.194;2022-10-17T12:59:32;85444.72;;;24.03;35.61
55486;BME280;49383;-25.924;28.194;2022-10-17T13:02:00;85445.33;;;24.08;34.59